Hamilton (Chedoke-McMaster Hospital) Heliport

CPJ3 · Ontario, Kanada

METAR-Geschichte CPJ3 · Hamilton (Chedoke-McMaster Hospital) Heliport

Unten siehst du die METARs der letzten paar Tage. Wähle ein Jahr, um ältere METARs ab dem Jahr 2007 zu durchsuchen.

15. April 2024

Uhrzeit Code Wetter Temp. Sichtweite Wolkendecke Wind METAR/SPECI
04:00
V
6 °C 15 mi - 360° 360° 3 kt METAR CYHM 150800Z 36003KT 340V060 15SM FEW092 06/06 A2980 RMK AC1 AC TR SLP096
03:00
V
6 °C 15 mi - 360° 360° 0 kt METAR CYHM 150700Z 00000KT 15SM SKC 06/06 A2980 RMK SLP097
02:00
V
9 °C 15 mi - 300° 300° 3 kt METAR CYHM 150600Z 30003KT 15SM SKC 09/05 A2979 RMK SLP091
01:00
V
10 °C 15 mi - 300° 300° 3 kt METAR CYHM 150500Z 30003KT 15SM SKC 10/05 A2978 RMK SLP089
00:00
V
11 °C 15 mi - 290° 290° 5 kt METAR CYHM 150400Z 29005KT 15SM SKC 11/06 A2976 RMK SLP082

14. April 2024

Uhrzeit Code Wetter Temp. Sichtweite Wolkendecke Wind METAR/SPECI
23:00
V
12 °C 15 mi - 330° 330° 8 kt METAR CYHM 150300Z 33008KT 15SM FEW090 12/06 A2975 RMK AC1 AC TR SLP078
22:00
V
13 °C 15 mi - 330° 330° 14 kt METAR CYHM 150200Z 33014KT 15SM FEW090 FEW250 13/07 A2972 RMK AC1CI1 AC TR CI TR SLP070 DENSITY ALT 1000FT
21:00
V
14 °C 15 mi - 330° 330° 8 kt METAR CYHM 150100Z 33008KT 15SM FEW048 FEW250 14/07 A2969 RMK SC1CI1 SC TR CI TR SLP058 DENSITY ALT 1200FT
20:00
V
16 °C 15 mi - 310° 310° 8 kt METAR CYHM 150000Z 31008KT 15SM FEW050 FEW060 FEW250 16/07 A2966 RMK SC1CU1CI1 SC TR CU TR CI TR SLP048 DENSITY ALT 1400FT
19:00
V
19 °C 15 mi - 280° 280° 9 kt METAR CYHM 142300Z 28009KT 15SM FEW050 FEW065 FEW250 19/08 A2965 RMK SC1CU1CI1 SC TR CU TR CI TR SLP044 DENSITY ALT 1700FT
18:00
V
20 °C 15 mi - 260° 260° 12 kt METAR CYHM 142200Z 26012KT 240V310 15SM FEW050 FEW065 FEW250 20/10 A2964 RMK SC1SC1CI1 SC TR SLP042 DENSITY ALT 1900FT
17:00
V
20 °C 15 mi - 270° 270° 11 - 18 kt METAR CYHM 142100Z 27011G18KT 15SM FEW045 FEW062 SCT250 20/10 A2962 RMK SC2SC1CI1 SC TR SLP032 DENSITY ALT 2000FT
16:00
V
19 °C 15 mi 6.400 ft 260° 260° 9 - 15 kt METAR CYHM 142000Z 26009G15KT 15SM FEW040 BKN064 BKN250 19/10 A2961 RMK SC2SC4CI1 CI TR SLP032 DENSITY ALT 1800FT
15:00
V
19 °C 15 mi 4.000 ft 280° 280° 8 kt METAR CYHM 141900Z 28008KT 15SM BKN040 BKN120 19/10 A2961 RMK SC7AC1 AC TR SLP031 DENSITY ALT 1800FT
14:00
V
18 °C 15 mi - 260° 260° 14 kt METAR CYHM 141800Z 26014KT 15SM FEW037 SCT120 18/09 A2960 RMK SC1AC2 SLP028 DENSITY ALT 1700FT
13:00
V
14 °C 15 mi 11.000 ft 270° 270° 3 kt METAR CYHM 141700Z 27003KT 220V300 15SM BKN110 BKN140 14/08 A2961 RMK AC5AC1 SLP030 DENSITY ALT 1300FT
12:00
V
13 °C 15 mi - 220° 220° 10 kt METAR CYHM 141600Z 22010KT 15SM FEW050 SCT150 13/08 A2961 RMK CU1AC4 CU TR SLP033 DENSITY ALT 1200FT
11:00
V
11 °C 15 mi - 190° 190° 13 kt METAR CYHM 141500Z 19013KT 15SM VCSH FEW050CB SCT110 11/07 A2964 RMK CB1AC2 CB SE SLP041
10:00
V
8 °C 15 mi 12.000 ft 160° 160° 10 - 15 kt METAR CYHM 141400Z 16010G15KT 15SM FEW056 FEW097 BKN120 BKN250 08/08 A2964 RMK SC1AC1AC5CI1 SC TR SLP043
09:00
V
7 °C 15 mi 12.000 ft 120° 120° 10 kt METAR CYHM 141300Z 12010KT 15SM FEW096 BKN120 BKN250 07/07 A2968 RMK AC2AC3CI2 VIRGA SLP056
08:34
V
6 °C 15 mi 25.000 ft 130° 130° 9 kt METAR CYHM 141234Z 13009KT 15SM FEW042 SCT096 BKN250 06/06 A2973 RMK SC1AC3CI3 PRESFR SLP075
08:12
M
6 °C 4 mi 5.600 ft 110° 110° 5 kt METAR CYHM 141212Z 11005KT 4SM -SHRA BR BKN056 BKN077 OVC093 06/06 A2979 RMK SC5AC2AC1 PRESFR SLP093
08:00
M
6 °C 4 mi 5.600 ft 100° 100° 3 kt METAR CYHM 141200Z 10003KT 4SM TSRA BKN056 OVC077 06/06 A2981 RMK SC6AC2 CB EMBD SLP101
07:47
I
6 °C 2½ mi 5.800 ft 020° 020° 3 kt METAR CYHM 141147Z 02003KT 310V040 2 1/2SM -TSRA OVC058 06/06 A2981 RMK SC8 CB SLP101
07:22
V
6 °C 15 mi 6.200 ft 340° 340° 8 kt METAR CYHM 141122Z 34008KT 15SM -TSRA OVC062 06/06 A2981 RMK SC8 CB EMBD PRESRR SLP100
07:10
V
6 °C 15 mi 6.500 ft 010° 010° 5 kt METAR CYHM 141110Z 01005KT 330V080 15SM -RA BKN065 BKN140 06/06 A2977 RMK SC7AC1 AC TR PRESRR SLP088
07:00
V
6 °C 15 mi 6.900 ft 080° 080° 7 kt METAR CYHM 141100Z 08007KT 15SM BKN069 BKN140 06/06 A2976 RMK AC7AC1 AC TR SLP083
06:00
V
6 °C 15 mi 10.000 ft 060° 060° 6 kt METAR CYHM 141000Z 06006KT 15SM FEW080 BKN100 06/06 A2981 RMK AC2AC5 PRESFR SLP100
05:00
V
7 °C 15 mi 9.000 ft 150° 150° 5 kt METAR CYHM 140900Z 15005KT 15SM BKN090 07/06 A2981 RMK AC7 SLP101
04:00
V
7 °C 15 mi 9.800 ft 160° 160° 5 kt METAR CYHM 140800Z 16005KT 15SM FEW050 BKN098 07/06 A2984 RMK SC1AC7 SC TR SLP110
03:00
V
7 °C 15 mi 10.000 ft 220° 220° 2 kt METAR CYHM 140700Z 22002KT 15SM FEW040 BKN100 07/06 A2986 RMK SC1AC6 SLP117
02:00
V
7 °C 15 mi 6.000 ft 290° 290° 6 kt METAR CYHM 140600Z 29006KT 15SM -RA FEW040 BKN060 OVC110 07/04 A2988 RMK SC1SC4AC3 SLP124
01:15
V
7 °C 15 mi 7.000 ft 240° 240° 7 kt METAR CYHM 140515Z CCA 24007KT 15SM -RA BKN070 BKN110 07/02 A2989 RMK AC5AC2 SLP127
00:00
V
6 °C 15 mi - 230° 230° 7 kt METAR CYHM 140400Z 23007KT 15SM FEW110 FEW160 06/01 A2987 RMK AC1AC1 AC TR SLP124

13. April 2024

Uhrzeit Code Wetter Temp. Sichtweite Wolkendecke Wind METAR/SPECI
23:00
V
6 °C 15 mi - 210° 210° 7 kt METAR CYHM 140300Z 21007KT 15SM FEW110 06/00 A2989 RMK AC1 AC TR SLP129
22:00
V
7 °C 15 mi - 230° 230° 7 kt METAR CYHM 140200Z 23007KT 15SM FEW120 FEW250 07/00 A2990 RMK AC1CI1 AC TR CI TR SLP132
21:00
V
8 °C 15 mi - 240° 240° 6 kt METAR CYHM 140100Z 24006KT 15SM FEW250 08/00 A2990 RMK CI1 CI TR SLP131
20:00
V
10 °C 15 mi - 260° 260° 9 kt METAR CYHM 140000Z 26009KT 15SM FEW250 10/00 A2989 RMK CI1 CI TR SLP128
19:00
V
11 °C 15 mi - 270° 270° 12 - 18 kt METAR CYHM 132300Z 27012G18KT 15SM FEW058 11/M00 A2989 RMK SC1 SC TR SLP127
18:00
V
11 °C 15 mi - 280° 280° 14 - 25 kt METAR CYHM 132200Z 28014G25KT 15SM FEW052 11/00 A2987 RMK SC1 SC TR SLP122
17:00
V
12 °C 15 mi - 280° 280° 17 - 28 kt METAR CYHM 132100Z 28017G28KT 15SM FEW048 FEW250 12/00 A2986 RMK SC2CI1 CI TR SLP117
16:00
V
11 °C 15 mi - 290° 290° 20 - 28 kt METAR CYHM 132000Z 29020G28KT 15SM SCT043 SCT250 11/00 A2985 RMK SC3CI1 CI TR SLP114
15:00
V
10 °C 15 mi - 280° 280° 18 - 27 kt METAR CYHM 131900Z 28018G27KT 15SM FEW039 FEW250 10/01 A2984 RMK SC2CI1 CI TR SLP110
14:00
V
9 °C 15 mi 3.400 ft 290° 290° 17 - 29 kt METAR CYHM 131800Z 29017G29KT 15SM BKN034 09/01 A2983 RMK SC7 SLP108
13:00
V
8 °C 15 mi 3.200 ft 300° 300° 20 - 29 kt METAR CYHM 131700Z 30020G29KT 15SM BKN032 08/01 A2981 RMK SC7 SLP102
12:00
M
6 °C 15 mi 2.900 ft 290° 290° 23 - 29 kt METAR CYHM 131600Z 29023G29KT 15SM OVC029 06/M00 A2979 RMK SC8 SLP097
11:00
M
6 °C 15 mi 2.800 ft 280° 280° 15 - 27 kt METAR CYHM 131500Z 28015G27KT 15SM OVC028 06/00 A2977 RMK SC8 SLP091
10:00
M
6 °C 15 mi 2.500 ft 290° 290° 16 - 25 kt METAR CYHM 131400Z 29016G25KT 15SM OVC025 06/00 A2975 RMK SC8 SLP083
09:00
M
5 °C 15 mi 2.300 ft 290° 290° 14 - 23 kt METAR CYHM 131300Z 29014G23KT 250V310 15SM BKN023 BKN070 OVC210 05/01 A2972 RMK SC7AC1CI1 AC TR SLP073
08:00
M
4 °C 15 mi 2.300 ft 280° 280° 17 - 27 kt METAR CYHM 131200Z 28017G27KT 15SM BKN023 OVC070 04/01 A2970 RMK SC6AC2 SLP064
07:00
V
4 °C 15 mi 6.300 ft 280° 280° 18 - 25 kt METAR CYHM 131100Z 28018G25KT 15SM SCT024 BKN063 BKN080 04/01 A2966 RMK SC4SC2AC1 SLP051
06:42
M
4 °C 15 mi 2.300 ft 280° 280° 18 - 30 kt METAR CYHM 131042Z 28018G30KT 15SM BKN023 OVC068 04/01 A2965 RMK SC6AC2 SLP048
06:00
M
4 °C 15 mi 2.300 ft 270° 270° 16 - 26 kt METAR CYHM 131000Z 27016G26KT 15SM -RA BKN023 OVC065 04/02 A2963 RMK SC6SC2 SLP041
05:00
M
4 °C 12 mi 1.700 ft 270° 270° 18 - 30 kt METAR CYHM 130900Z 27018G30KT 12SM -RA OVC017 04/02 A2959 RMK SC8 SLP029
04:00
M
4 °C 15 mi 1.800 ft 260° 260° 18 - 24 kt METAR CYHM 130800Z 26018G24KT 15SM -RA OVC018 04/02 A2957 RMK SC8 SLP020
03:00
M
4 °C 10 mi 1.800 ft 270° 270° 16 - 28 kt METAR CYHM 130700Z 27016G28KT 10SM -RA OVC018 04/03 A2955 RMK SC8 SLP012
02:00
M
4 °C 12 mi 1.500 ft 270° 270° 15 - 24 kt METAR CYHM 130600Z 27015G24KT 12SM -RA OVC015 04/03 A2952 RMK SC8 SLP005
Eine Änderung melden